sensor_id;sensor_type;location;lat;lon;timestamp;P1;durP1;ratioP1;P2;durP2;ratioP2
72951;SDS011;61102;51.956;5.878;2022-08-07T00:01:43;2.45;;;0.63;;
72951;SDS011;61102;51.956;5.878;2022-08-07T00:04:09;1.83;;;0.63;;
72951;SDS011;61102;51.956;5.878;2022-08-07T00:06:35;4.15;;;0.88;;
72951;SDS011;61102;51.956;5.878;2022-08-07T00:09:02;3.55;;;0.93;;
72951;SDS011;61102;51.956;5.878;2022-08-07T00:11:29;2.65;;;0.90;;
72951;SDS011;61102;51.956;5.878;2022-08-07T00:13:55;2.95;;;0.88;;
72951;SDS011;61102;51.956;5.878;2022-08-07T00:16:22;3.17;;;0.80;;
72951;SDS011;61102;51.956;5.878;2022-08-07T00:18:48;3.80;;;1.00;;
72951;SDS011;61102;51.956;5.878;2022-08-07T00:21:14;3.63;;;0.90;;
72951;SDS011;61102;51.956;5.878;2022-08-07T00:23:40;3.13;;;0.77;;
72951;SDS011;61102;51.956;5.878;2022-08-07T00:26:07;1.58;;;0.50;;
72951;SDS011;61102;51.956;5.878;2022-08-07T00:28:36;1.23;;;0.40;;
72951;SDS011;61102;51.956;5.878;2022-08-07T00:31:04;2.33;;;0.73;;
72951;SDS011;61102;51.956;5.878;2022-08-07T00:33:34;1.48;;;0.70;;
72951;SDS011;61102;51.956;5.878;2022-08-07T00:36:01;2.78;;;0.93;;
72951;SDS011;61102;51.956;5.878;2022-08-07T00:38:29;1.27;;;0.60;;
72951;SDS011;61102;51.956;5.878;2022-08-07T00:40:55;4.40;;;0.90;;
72951;SDS011;61102;51.956;5.878;2022-08-07T00:43:21;1.10;;;0.40;;
72951;SDS011;61102;51.956;5.878;2022-08-07T00:45:47;1.55;;;0.68;;
72951;SDS011;61102;51.956;5.878;2022-08-07T00:48:13;2.20;;;0.50;;
72951;SDS011;61102;51.956;5.878;2022-08-07T00:50:39;0.88;;;0.32;;
72951;SDS011;61102;51.956;5.878;2022-08-07T00:53:06;3.33;;;0.70;;
72951;SDS011;61102;51.956;5.878;2022-08-07T00:55:32;3.35;;;0.75;;
72951;SDS011;61102;51.956;5.878;2022-08-07T00:57:58;2.40;;;0.80;;
72951;SDS011;61102;51.956;5.878;2022-08-07T01:00:25;1.10;;;0.40;;
72951;SDS011;61102;51.956;5.878;2022-08-07T01:02:51;1.25;;;0.60;;
72951;SDS011;61102;51.956;5.878;2022-08-07T01:05:18;1.20;;;0.50;;
72951;SDS011;61102;51.956;5.878;2022-08-07T01:10:11;1.55;;;0.60;;
72951;SDS011;61102;51.956;5.878;2022-08-07T01:12:39;1.67;;;0.70;;
72951;SDS011;61102;51.956;5.878;2022-08-07T01:15:07;1.85;;;0.63;;
72951;SDS011;61102;51.956;5.878;2022-08-07T01:17:34;2.05;;;0.60;;
72951;SDS011;61102;51.956;5.878;2022-08-07T01:20:20;1.70;;;0.60;;
72951;SDS011;61102;51.956;5.878;2022-08-07T01:22:50;3.03;;;0.95;;
72951;SDS011;61102;51.956;5.878;2022-08-07T01:25:16;2.05;;;0.70;;
72951;SDS011;61102;51.956;5.878;2022-08-07T01:27:43;3.10;;;0.73;;
72951;SDS011;61102;51.956;5.878;2022-08-07T01:30:09;3.08;;;0.95;;
72951;SDS011;61102;51.956;5.878;2022-08-07T01:32:35;1.20;;;0.55;;
72951;SDS011;61102;51.956;5.878;2022-08-07T01:35:02;2.05;;;0.80;;
72951;SDS011;61102;51.956;5.878;2022-08-07T01:37:28;1.83;;;0.52;;
72951;SDS011;61102;51.956;5.878;2022-08-07T01:39:56;0.50;;;0.30;;
72951;SDS011;61102;51.956;5.878;2022-08-07T01:42:28;1.75;;;0.50;;
72951;SDS011;61102;51.956;5.878;2022-08-07T01:44:55;1.42;;;0.60;;
72951;SDS011;61102;51.956;5.878;2022-08-07T01:47:22;1.30;;;0.60;;
72951;SDS011;61102;51.956;5.878;2022-08-07T01:49:49;1.73;;;0.63;;
72951;SDS011;61102;51.956;5.878;2022-08-07T01:52:15;1.63;;;0.55;;
72951;SDS011;61102;51.956;5.878;2022-08-07T01:54:42;1.13;;;0.40;;
72951;SDS011;61102;51.956;5.878;2022-08-07T01:57:14;1.30;;;0.50;;
72951;SDS011;61102;51.956;5.878;2022-08-07T02:05:41;1.52;;;0.68;;
72951;SDS011;61102;51.956;5.878;2022-08-07T02:08:14;2.67;;;0.80;;
72951;SDS011;61102;51.956;5.878;2022-08-07T02:10:42;2.17;;;0.60;;
72951;SDS011;61102;51.956;5.878;2022-08-07T02:13:11;1.58;;;0.70;;
72951;SDS011;61102;51.956;5.878;2022-08-07T02:15:46;2.58;;;0.73;;
72951;SDS011;61102;51.956;5.878;2022-08-07T02:18:14;2.05;;;0.77;;
72951;SDS011;61102;51.956;5.878;2022-08-07T02:20:41;1.10;;;0.52;;
72951;SDS011;61102;51.956;5.878;2022-08-07T02:23:09;3.97;;;1.23;;
72951;SDS011;61102;51.956;5.878;2022-08-07T02:25:36;4.10;;;1.58;;
72951;SDS011;61102;51.956;5.878;2022-08-07T02:28:05;4.63;;;1.40;;
72951;SDS011;61102;51.956;5.878;2022-08-07T02:30:33;3.50;;;1.30;;
72951;SDS011;61102;51.956;5.878;2022-08-07T02:33:01;4.10;;;1.35;;
72951;SDS011;61102;51.956;5.878;2022-08-07T02:35:29;3.47;;;1.40;;
72951;SDS011;61102;51.956;5.878;2022-08-07T02:37:59;4.10;;;1.50;;
72951;SDS011;61102;51.956;5.878;2022-08-07T02:40:29;4.20;;;1.45;;
72951;SDS011;61102;51.956;5.878;2022-08-07T02:42:57;3.60;;;1.40;;
72951;SDS011;61102;51.956;5.878;2022-08-07T02:45:26;3.17;;;1.20;;
72951;SDS011;61102;51.956;5.878;2022-08-07T02:47:55;4.13;;;1.33;;
72951;SDS011;61102;51.956;5.878;2022-08-07T02:50:22;3.63;;;1.40;;
72951;SDS011;61102;51.956;5.878;2022-08-07T02:52:52;3.85;;;1.38;;
72951;SDS011;61102;51.956;5.878;2022-08-07T02:55:20;3.05;;;1.23;;
72951;SDS011;61102;51.956;5.878;2022-08-07T02:57:48;3.03;;;1.10;;
72951;SDS011;61102;51.956;5.878;2022-08-07T03:00:17;3.53;;;1.30;;
72951;SDS011;61102;51.956;5.878;2022-08-07T03:02:44;3.35;;;1.27;;
72951;SDS011;61102;51.956;5.878;2022-08-07T03:05:14;4.25;;;1.45;;
72951;SDS011;61102;51.956;5.878;2022-08-07T03:07:41;3.35;;;1.27;;
72951;SDS011;61102;51.956;5.878;2022-08-07T03:10:10;4.75;;;1.50;;
72951;SDS011;61102;51.956;5.878;2022-08-07T03:12:37;4.38;;;1.40;;
72951;SDS011;61102;51.956;5.878;2022-08-07T03:15:09;3.05;;;1.15;;
72951;SDS011;61102;51.956;5.878;2022-08-07T03:17:37;2.70;;;1.10;;
72951;SDS011;61102;51.956;5.878;2022-08-07T03:20:07;3.22;;;1.23;;
72951;SDS011;61102;51.956;5.878;2022-08-07T03:22:34;3.88;;;1.40;;
72951;SDS011;61102;51.956;5.878;2022-08-07T03:25:03;4.03;;;1.65;;
72951;SDS011;61102;51.956;5.878;2022-08-07T03:27:37;2.65;;;1.10;;
72951;SDS011;61102;51.956;5.878;2022-08-07T03:30:07;3.85;;;1.33;;
72951;SDS011;61102;51.956;5.878;2022-08-07T03:32:38;3.75;;;1.40;;
72951;SDS011;61102;51.956;5.878;2022-08-07T03:35:06;3.80;;;1.20;;
72951;SDS011;61102;51.956;5.878;2022-08-07T03:37:36;3.95;;;1.50;;
72951;SDS011;61102;51.956;5.878;2022-08-07T03:40:04;4.70;;;1.60;;
72951;SDS011;61102;51.956;5.878;2022-08-07T03:42:32;4.03;;;1.50;;
72951;SDS011;61102;51.956;5.878;2022-08-07T03:45:01;3.45;;;1.30;;
72951;SDS011;61102;51.956;5.878;2022-08-07T03:47:29;3.80;;;1.50;;
72951;SDS011;61102;51.956;5.878;2022-08-07T03:49:57;4.70;;;1.70;;
72951;SDS011;61102;51.956;5.878;2022-08-07T03:52:28;5.00;;;1.67;;
72951;SDS011;61102;51.956;5.878;2022-08-07T03:54:59;4.00;;;1.35;;
72951;SDS011;61102;51.956;5.878;2022-08-07T03:57:28;3.70;;;1.40;;
72951;SDS011;61102;51.956;5.878;2022-08-07T03:59:57;4.90;;;1.67;;
72951;SDS011;61102;51.956;5.878;2022-08-07T04:02:23;4.50;;;1.50;;
72951;SDS011;61102;51.956;5.878;2022-08-07T04:04:50;4.50;;;1.67;;
72951;SDS011;61102;51.956;5.878;2022-08-07T04:07:16;4.32;;;1.70;;
72951;SDS011;61102;51.956;5.878;2022-08-07T04:09:46;4.65;;;1.80;;
72951;SDS011;61102;51.956;5.878;2022-08-07T04:12:13;4.53;;;1.75;;
72951;SDS011;61102;51.956;5.878;2022-08-07T04:14:40;3.78;;;1.50;;
72951;SDS011;61102;51.956;5.878;2022-08-07T04:17:07;4.68;;;1.60;;
72951;SDS011;61102;51.956;5.878;2022-08-07T04:19:34;4.63;;;1.67;;
72951;SDS011;61102;51.956;5.878;2022-08-07T04:22:01;4.57;;;1.50;;
72951;SDS011;61102;51.956;5.878;2022-08-07T04:24:31;4.77;;;1.73;;
72951;SDS011;61102;51.956;5.878;2022-08-07T04:26:59;4.77;;;1.70;;
72951;SDS011;61102;51.956;5.878;2022-08-07T04:29:27;5.00;;;1.80;;
72951;SDS011;61102;51.956;5.878;2022-08-07T04:31:54;3.90;;;1.50;;
72951;SDS011;61102;51.956;5.878;2022-08-07T04:34:22;4.80;;;1.60;;
72951;SDS011;61102;51.956;5.878;2022-08-07T04:36:49;4.78;;;1.63;;
72951;SDS011;61102;51.956;5.878;2022-08-07T04:39:16;4.80;;;1.60;;
72951;SDS011;61102;51.956;5.878;2022-08-07T04:41:42;4.32;;;1.70;;
72951;SDS011;61102;51.956;5.878;2022-08-07T04:44:08;4.32;;;1.60;;
72951;SDS011;61102;51.956;5.878;2022-08-07T04:46:59;5.15;;;1.80;;
72951;SDS011;61102;51.956;5.878;2022-08-07T04:53:13;4.75;;;1.60;;
72951;SDS011;61102;51.956;5.878;2022-08-07T05:00:58;4.20;;;1.60;;
72951;SDS011;61102;51.956;5.878;2022-08-07T05:06:37;5.25;;;1.80;;
72951;SDS011;61102;51.956;5.878;2022-08-07T05:11:47;5.17;;;2.00;;
72951;SDS011;61102;51.956;5.878;2022-08-07T05:14:27;5.63;;;2.20;;
72951;SDS011;61102;51.956;5.878;2022-08-07T05:17:01;4.30;;;1.77;;
72951;SDS011;61102;51.956;5.878;2022-08-07T05:19:37;5.28;;;2.00;;
72951;SDS011;61102;51.956;5.878;2022-08-07T05:22:13;5.57;;;2.13;;
72951;SDS011;61102;51.956;5.878;2022-08-07T05:24:42;5.45;;;1.90;;
72951;SDS011;61102;51.956;5.878;2022-08-07T05:27:11;5.10;;;1.98;;
72951;SDS011;61102;51.956;5.878;2022-08-07T05:29:39;5.43;;;1.83;;
72951;SDS011;61102;51.956;5.878;2022-08-07T05:32:08;5.68;;;2.20;;
72951;SDS011;61102;51.956;5.878;2022-08-07T05:34:36;5.60;;;2.17;;
72951;SDS011;61102;51.956;5.878;2022-08-07T05:37:04;4.28;;;1.63;;
72951;SDS011;61102;51.956;5.878;2022-08-07T05:39:41;4.50;;;1.70;;
72951;SDS011;61102;51.956;5.878;2022-08-07T05:42:08;5.28;;;1.88;;
72951;SDS011;61102;51.956;5.878;2022-08-07T05:44:36;5.82;;;2.40;;
72951;SDS011;61102;51.956;5.878;2022-08-07T05:47:05;5.30;;;2.13;;
72951;SDS011;61102;51.956;5.878;2022-08-07T05:49:33;5.35;;;2.10;;
72951;SDS011;61102;51.956;5.878;2022-08-07T05:51:59;6.00;;;2.50;;
72951;SDS011;61102;51.956;5.878;2022-08-07T05:54:28;6.30;;;2.50;;
72951;SDS011;61102;51.956;5.878;2022-08-07T05:56:55;4.63;;;1.70;;
72951;SDS011;61102;51.956;5.878;2022-08-07T05:59:23;4.47;;;1.60;;
72951;SDS011;61102;51.956;5.878;2022-08-07T06:01:55;5.22;;;1.92;;
72951;SDS011;61102;51.956;5.878;2022-08-07T06:04:23;6.18;;;2.30;;
72951;SDS011;61102;51.956;5.878;2022-08-07T06:06:52;6.00;;;2.30;;
72951;SDS011;61102;51.956;5.878;2022-08-07T06:09:20;5.68;;;2.28;;
72951;SDS011;61102;51.956;5.878;2022-08-07T06:11:48;5.15;;;2.00;;
72951;SDS011;61102;51.956;5.878;2022-08-07T06:14:17;5.38;;;1.80;;
72951;SDS011;61102;51.956;5.878;2022-08-07T06:16:45;3.65;;;1.60;;
72951;SDS011;61102;51.956;5.878;2022-08-07T06:19:14;4.43;;;1.73;;
72951;SDS011;61102;51.956;5.878;2022-08-07T06:21:42;5.45;;;2.00;;
72951;SDS011;61102;51.956;5.878;2022-08-07T06:24:11;4.75;;;1.92;;
72951;SDS011;61102;51.956;5.878;2022-08-07T06:26:38;6.18;;;2.45;;
72951;SDS011;61102;51.956;5.878;2022-08-07T06:29:06;6.40;;;2.53;;
72951;SDS011;61102;51.956;5.878;2022-08-07T06:31:33;5.68;;;2.22;;
72951;SDS011;61102;51.956;5.878;2022-08-07T06:34:00;6.60;;;2.40;;
72951;SDS011;61102;51.956;5.878;2022-08-07T06:36:26;5.63;;;2.25;;
72951;SDS011;61102;51.956;5.878;2022-08-07T06:38:56;5.68;;;2.30;;
72951;SDS011;61102;51.956;5.878;2022-08-07T06:41:25;5.10;;;2.03;;
72951;SDS011;61102;51.956;5.878;2022-08-07T06:43:55;6.20;;;2.22;;
72951;SDS011;61102;51.956;5.878;2022-08-07T06:46:24;6.10;;;2.50;;
72951;SDS011;61102;51.956;5.878;2022-08-07T06:48:51;5.68;;;2.28;;
72951;SDS011;61102;51.956;5.878;2022-08-07T06:51:21;4.95;;;1.88;;
72951;SDS011;61102;51.956;5.878;2022-08-07T06:53:53;5.50;;;2.00;;
72951;SDS011;61102;51.956;5.878;2022-08-07T06:56:21;4.38;;;1.60;;
72951;SDS011;61102;51.956;5.878;2022-08-07T06:59:23;5.38;;;1.95;;
72951;SDS011;61102;51.956;5.878;2022-08-07T07:01:57;4.47;;;1.75;;
72951;SDS011;61102;51.956;5.878;2022-08-07T07:04:24;5.75;;;2.30;;
72951;SDS011;61102;51.956;5.878;2022-08-07T07:06:51;6.57;;;2.30;;
72951;SDS011;61102;51.956;5.878;2022-08-07T07:17:32;4.85;;;1.77;;
72951;SDS011;61102;51.956;5.878;2022-08-07T07:20:35;4.78;;;1.50;;
72951;SDS011;61102;51.956;5.878;2022-08-07T07:23:04;4.45;;;1.70;;
72951;SDS011;61102;51.956;5.878;2022-08-07T07:25:32;5.53;;;2.00;;
72951;SDS011;61102;51.956;5.878;2022-08-07T07:28:04;3.60;;;1.40;;
72951;SDS011;61102;51.956;5.878;2022-08-07T07:30:38;3.90;;;1.40;;
72951;SDS011;61102;51.956;5.878;2022-08-07T07:33:08;5.07;;;1.80;;
72951;SDS011;61102;51.956;5.878;2022-08-07T07:35:35;5.70;;;1.67;;
72951;SDS011;61102;51.956;5.878;2022-08-07T07:38:02;5.07;;;1.70;;
72951;SDS011;61102;51.956;5.878;2022-08-07T07:40:30;5.10;;;1.63;;
72951;SDS011;61102;51.956;5.878;2022-08-07T07:42:58;3.78;;;1.17;;
72951;SDS011;61102;51.956;5.878;2022-08-07T07:45:28;5.05;;;1.50;;
72951;SDS011;61102;51.956;5.878;2022-08-07T07:47:55;3.03;;;1.10;;
72951;SDS011;61102;51.956;5.878;2022-08-07T07:50:24;5.25;;;1.50;;
72951;SDS011;61102;51.956;5.878;2022-08-07T07:52:52;5.78;;;1.30;;
72951;SDS011;61102;51.956;5.878;2022-08-07T07:55:21;4.65;;;1.50;;
72951;SDS011;61102;51.956;5.878;2022-08-07T07:57:48;4.43;;;1.20;;
72951;SDS011;61102;51.956;5.878;2022-08-07T08:02:42;6.22;;;1.40;;
72951;SDS011;61102;51.956;5.878;2022-08-07T08:05:12;3.53;;;1.10;;
72951;SDS011;61102;51.956;5.878;2022-08-07T08:07:41;4.78;;;1.13;;
72951;SDS011;61102;51.956;5.878;2022-08-07T08:10:08;3.67;;;0.90;;
72951;SDS011;61102;51.956;5.878;2022-08-07T08:12:35;3.80;;;1.05;;
72951;SDS011;61102;51.956;5.878;2022-08-07T08:19:56;3.83;;;0.80;;
72951;SDS011;61102;51.956;5.878;2022-08-07T08:22:25;4.22;;;1.00;;
72951;SDS011;61102;51.956;5.878;2022-08-07T08:25:11;2.10;;;0.70;;
72951;SDS011;61102;51.956;5.878;2022-08-07T08:27:56;4.03;;;0.70;;
72951;SDS011;61102;51.956;5.878;2022-08-07T08:30:25;3.85;;;1.05;;
72951;SDS011;61102;51.956;5.878;2022-08-07T08:35:23;4.47;;;0.90;;
72951;SDS011;61102;51.956;5.878;2022-08-07T08:37:54;4.03;;;0.90;;
72951;SDS011;61102;51.956;5.878;2022-08-07T08:40:35;2.33;;;0.60;;
72951;SDS011;61102;51.956;5.878;2022-08-07T08:45:48;4.68;;;1.00;;
72951;SDS011;61102;51.956;5.878;2022-08-07T08:51:01;3.95;;;1.10;;
72951;SDS011;61102;51.956;5.878;2022-08-07T08:53:40;2.78;;;0.90;;
72951;SDS011;61102;51.956;5.878;2022-08-07T08:56:14;3.78;;;1.10;;
72951;SDS011;61102;51.956;5.878;2022-08-07T08:58:51;3.10;;;0.80;;
72951;SDS011;61102;51.956;5.878;2022-08-07T09:04:21;3.97;;;1.23;;
72951;SDS011;61102;51.956;5.878;2022-08-07T09:07:30;2.33;;;0.68;;
72951;SDS011;61102;51.956;5.878;2022-08-07T09:10:16;2.42;;;0.82;;
72951;SDS011;61102;51.956;5.878;2022-08-07T09:21:28;3.05;;;0.73;;
72951;SDS011;61102;51.956;5.878;2022-08-07T09:24:17;3.88;;;0.90;;
72951;SDS011;61102;51.956;5.878;2022-08-07T09:32:25;3.97;;;1.00;;
72951;SDS011;61102;51.956;5.878;2022-08-07T09:35:05;3.17;;;0.80;;
72951;SDS011;61102;51.956;5.878;2022-08-07T09:43:35;1.77;;;0.65;;
72951;SDS011;61102;51.956;5.878;2022-08-07T09:51:43;1.75;;;0.52;;
72951;SDS011;61102;51.956;5.878;2022-08-07T09:57:09;2.53;;;0.52;;
72951;SDS011;61102;51.956;5.878;2022-08-07T10:00:06;1.63;;;0.60;;
72951;SDS011;61102;51.956;5.878;2022-08-07T10:14:19;1.95;;;0.60;;
72951;SDS011;61102;51.956;5.878;2022-08-07T10:19:48;1.00;;;0.40;;
72951;SDS011;61102;51.956;5.878;2022-08-07T10:27:56;4.93;;;0.90;;
72951;SDS011;61102;51.956;5.878;2022-08-07T10:30:51;2.10;;;0.60;;
72951;SDS011;61102;51.956;5.878;2022-08-07T10:36:58;1.63;;;0.50;;
72951;SDS011;61102;51.956;5.878;2022-08-07T10:47:53;2.97;;;0.88;;
72951;SDS011;61102;51.956;5.878;2022-08-07T10:50:31;3.00;;;0.73;;
72951;SDS011;61102;51.956;5.878;2022-08-07T10:53:16;3.70;;;0.90;;
72951;SDS011;61102;51.956;5.878;2022-08-07T10:55:49;2.13;;;0.73;;
72951;SDS011;61102;51.956;5.878;2022-08-07T10:58:27;1.60;;;0.52;;
72951;SDS011;61102;51.956;5.878;2022-08-07T11:06:40;2.28;;;0.70;;
72951;SDS011;61102;51.956;5.878;2022-08-07T11:09:16;2.60;;;0.65;;
72951;SDS011;61102;51.956;5.878;2022-08-07T11:11:48;2.05;;;0.60;;
72951;SDS011;61102;51.956;5.878;2022-08-07T11:14:40;3.05;;;1.00;;
72951;SDS011;61102;51.956;5.878;2022-08-07T11:17:24;2.33;;;0.88;;
72951;SDS011;61102;51.956;5.878;2022-08-07T11:20:06;2.60;;;0.85;;
72951;SDS011;61102;51.956;5.878;2022-08-07T11:22:48;2.22;;;0.90;;
72951;SDS011;61102;51.956;5.878;2022-08-07T11:28:11;3.00;;;0.90;;
72951;SDS011;61102;51.956;5.878;2022-08-07T11:33:20;1.08;;;0.50;;
72951;SDS011;61102;51.956;5.878;2022-08-07T11:38:52;4.88;;;1.23;;
72951;SDS011;61102;51.956;5.878;2022-08-07T11:47:08;3.08;;;0.98;;
72951;SDS011;61102;51.956;5.878;2022-08-07T11:50:02;5.68;;;1.25;;
72951;SDS011;61102;51.956;5.878;2022-08-07T11:55:44;2.53;;;0.77;;
72951;SDS011;61102;51.956;5.878;2022-08-07T12:07:40;5.07;;;1.35;;
72951;SDS011;61102;51.956;5.878;2022-08-07T12:10:24;2.58;;;0.93;;
72951;SDS011;61102;51.956;5.878;2022-08-07T12:13:02;3.83;;;1.33;;
72951;SDS011;61102;51.956;5.878;2022-08-07T12:15:33;2.33;;;0.90;;
72951;SDS011;61102;51.956;5.878;2022-08-07T12:18:20;2.70;;;1.00;;
72951;SDS011;61102;51.956;5.878;2022-08-07T12:20:53;3.60;;;0.98;;
72951;SDS011;61102;51.956;5.878;2022-08-07T12:29:17;4.60;;;1.20;;
72951;SDS011;61102;51.956;5.878;2022-08-07T12:31:48;3.35;;;1.20;;
72951;SDS011;61102;51.956;5.878;2022-08-07T12:34:21;4.55;;;1.20;;
72951;SDS011;61102;51.956;5.878;2022-08-07T12:36:51;3.38;;;1.00;;
72951;SDS011;61102;51.956;5.878;2022-08-07T12:39:19;2.30;;;0.80;;
72951;SDS011;61102;51.956;5.878;2022-08-07T12:41:47;1.60;;;0.60;;
72951;SDS011;61102;51.956;5.878;2022-08-07T12:44:16;3.28;;;1.00;;
72951;SDS011;61102;51.956;5.878;2022-08-07T12:46:48;1.77;;;0.80;;
72951;SDS011;61102;51.956;5.878;2022-08-07T12:49:32;2.88;;;0.88;;
72951;SDS011;61102;51.956;5.878;2022-08-07T12:52:03;2.78;;;1.05;;
72951;SDS011;61102;51.956;5.878;2022-08-07T12:57:08;5.03;;;1.40;;
72951;SDS011;61102;51.956;5.878;2022-08-07T12:59:37;4.13;;;1.23;;
72951;SDS011;61102;51.956;5.878;2022-08-07T13:07:49;4.55;;;1.20;;
72951;SDS011;61102;51.956;5.878;2022-08-07T13:10:37;4.38;;;1.23;;
72951;SDS011;61102;51.956;5.878;2022-08-07T13:21:28;3.15;;;1.00;;
72951;SDS011;61102;51.956;5.878;2022-08-07T13:24:07;3.63;;;1.00;;
72951;SDS011;61102;51.956;5.878;2022-08-07T13:27:08;1.70;;;0.80;;
72951;SDS011;61102;51.956;5.878;2022-08-07T13:32:13;3.05;;;0.90;;
72951;SDS011;61102;51.956;5.878;2022-08-07T13:40:22;4.53;;;0.90;;
72951;SDS011;61102;51.956;5.878;2022-08-07T13:42:50;2.67;;;0.85;;
72951;SDS011;61102;51.956;5.878;2022-08-07T13:45:19;3.10;;;0.80;;
72951;SDS011;61102;51.956;5.878;2022-08-07T13:47:46;2.72;;;0.90;;
72951;SDS011;61102;51.956;5.878;2022-08-07T13:50:18;1.75;;;0.70;;
72951;SDS011;61102;51.956;5.878;2022-08-07T13:52:46;2.40;;;0.90;;
72951;SDS011;61102;51.956;5.878;2022-08-07T13:55:14;3.38;;;0.82;;
72951;SDS011;61102;51.956;5.878;2022-08-07T13:57:44;1.98;;;0.60;;
72951;SDS011;61102;51.956;5.878;2022-08-07T14:00:13;2.33;;;0.88;;
72951;SDS011;61102;51.956;5.878;2022-08-07T14:02:41;3.05;;;0.80;;
72951;SDS011;61102;51.956;5.878;2022-08-07T14:05:14;2.17;;;0.70;;
72951;SDS011;61102;51.956;5.878;2022-08-07T14:07:46;1.10;;;0.50;;
72951;SDS011;61102;51.956;5.878;2022-08-07T14:10:14;2.17;;;0.70;;
72951;SDS011;61102;51.956;5.878;2022-08-07T14:12:48;2.90;;;0.80;;
72951;SDS011;61102;51.956;5.878;2022-08-07T14:15:31;1.83;;;0.70;;
72951;SDS011;61102;51.956;5.878;2022-08-07T14:20:40;2.65;;;0.70;;
72951;SDS011;61102;51.956;5.878;2022-08-07T14:23:15;2.47;;;0.80;;
72951;SDS011;61102;51.956;5.878;2022-08-07T14:25:45;1.90;;;0.70;;
72951;SDS011;61102;51.956;5.878;2022-08-07T14:28:19;2.00;;;0.52;;
72951;SDS011;61102;51.956;5.878;2022-08-07T14:30:49;1.98;;;0.50;;
72951;SDS011;61102;51.956;5.878;2022-08-07T14:33:15;2.47;;;0.57;;
72951;SDS011;61102;51.956;5.878;2022-08-07T14:35:42;2.28;;;0.70;;
72951;SDS011;61102;51.956;5.878;2022-08-07T14:38:09;2.70;;;0.95;;
72951;SDS011;61102;51.956;5.878;2022-08-07T14:40:37;1.27;;;0.70;;
72951;SDS011;61102;51.956;5.878;2022-08-07T14:43:07;3.47;;;0.98;;
72951;SDS011;61102;51.956;5.878;2022-08-07T14:45:41;2.15;;;0.85;;
72951;SDS011;61102;51.956;5.878;2022-08-07T14:48:10;3.83;;;0.93;;
72951;SDS011;61102;51.956;5.878;2022-08-07T14:50:43;4.22;;;0.73;;
72951;SDS011;61102;51.956;5.878;2022-08-07T14:53:12;1.55;;;0.60;;
72951;SDS011;61102;51.956;5.878;2022-08-07T14:55:41;2.40;;;0.77;;
72951;SDS011;61102;51.956;5.878;2022-08-07T14:58:09;1.75;;;0.80;;
72951;SDS011;61102;51.956;5.878;2022-08-07T15:00:38;1.88;;;0.70;;
72951;SDS011;61102;51.956;5.878;2022-08-07T15:03:09;3.00;;;0.90;;
72951;SDS011;61102;51.956;5.878;2022-08-07T15:05:37;3.20;;;0.90;;
72951;SDS011;61102;51.956;5.878;2022-08-07T15:08:05;2.28;;;0.80;;
72951;SDS011;61102;51.956;5.878;2022-08-07T15:10:34;3.05;;;0.90;;
72951;SDS011;61102;51.956;5.878;2022-08-07T15:13:07;3.83;;;1.27;;
72951;SDS011;61102;51.956;5.878;2022-08-07T15:15:46;3.60;;;0.90;;
72951;SDS011;61102;51.956;5.878;2022-08-07T15:18:35;2.35;;;0.80;;
72951;SDS011;61102;51.956;5.878;2022-08-07T15:21:18;2.92;;;0.70;;
72951;SDS011;61102;51.956;5.878;2022-08-07T15:23:48;2.88;;;0.90;;
72951;SDS011;61102;51.956;5.878;2022-08-07T15:26:16;1.30;;;0.50;;
72951;SDS011;61102;51.956;5.878;2022-08-07T15:28:55;3.85;;;1.08;;
72951;SDS011;61102;51.956;5.878;2022-08-07T15:31:23;2.92;;;1.13;;
72951;SDS011;61102;51.956;5.878;2022-08-07T15:33:55;3.35;;;1.10;;
72951;SDS011;61102;51.956;5.878;2022-08-07T15:36:29;3.05;;;0.95;;
72951;SDS011;61102;51.956;5.878;2022-08-07T15:39:00;3.50;;;1.08;;
72951;SDS011;61102;51.956;5.878;2022-08-07T15:41:36;2.15;;;0.90;;
72951;SDS011;61102;51.956;5.878;2022-08-07T15:44:11;3.10;;;1.10;;
72951;SDS011;61102;51.956;5.878;2022-08-07T15:46:41;3.03;;;1.13;;
72951;SDS011;61102;51.956;5.878;2022-08-07T15:49:11;3.60;;;1.00;;
72951;SDS011;61102;51.956;5.878;2022-08-07T15:51:41;3.20;;;0.80;;
72951;SDS011;61102;51.956;5.878;2022-08-07T15:54:09;2.40;;;0.80;;
72951;SDS011;61102;51.956;5.878;2022-08-07T15:56:37;2.88;;;0.75;;
72951;SDS011;61102;51.956;5.878;2022-08-07T15:59:06;5.53;;;1.10;;
72951;SDS011;61102;51.956;5.878;2022-08-07T16:01:39;5.90;;;1.50;;
72951;SDS011;61102;51.956;5.878;2022-08-07T16:04:14;3.15;;;0.90;;
72951;SDS011;61102;51.956;5.878;2022-08-07T16:06:46;2.60;;;0.90;;
72951;SDS011;61102;51.956;5.878;2022-08-07T16:17:37;3.33;;;0.98;;
72951;SDS011;61102;51.956;5.878;2022-08-07T16:20:48;3.70;;;0.68;;
72951;SDS011;61102;51.956;5.878;2022-08-07T16:26:43;3.85;;;0.90;;
72951;SDS011;61102;51.956;5.878;2022-08-07T16:32:14;1.80;;;0.60;;
72951;SDS011;61102;51.956;5.878;2022-08-07T16:34:56;3.50;;;0.85;;
72951;SDS011;61102;51.956;5.878;2022-08-07T16:40:49;1.92;;;0.60;;
72951;SDS011;61102;51.956;5.878;2022-08-07T16:43:45;3.35;;;0.80;;
72951;SDS011;61102;51.956;5.878;2022-08-07T16:57:58;3.13;;;0.70;;
72951;SDS011;61102;51.956;5.878;2022-08-07T17:00:38;4.45;;;1.00;;
72951;SDS011;61102;51.956;5.878;2022-08-07T17:03:17;2.75;;;0.80;;
72951;SDS011;61102;51.956;5.878;2022-08-07T17:06:11;1.63;;;0.70;;
72951;SDS011;61102;51.956;5.878;2022-08-07T17:09:02;1.90;;;0.70;;
72951;SDS011;61102;51.956;5.878;2022-08-07T17:11:52;2.65;;;0.90;;
72951;SDS011;61102;51.956;5.878;2022-08-07T17:19:59;3.17;;;0.70;;
72951;SDS011;61102;51.956;5.878;2022-08-07T17:22:35;3.13;;;0.70;;
72951;SDS011;61102;51.956;5.878;2022-08-07T17:25:17;2.65;;;0.70;;
72951;SDS011;61102;51.956;5.878;2022-08-07T17:36:13;3.97;;;0.80;;
72951;SDS011;61102;51.956;5.878;2022-08-07T17:38:48;2.22;;;0.52;;
72951;SDS011;61102;51.956;5.878;2022-08-07T17:42:10;2.45;;;0.70;;
72951;SDS011;61102;51.956;5.878;2022-08-07T17:44:23;2.75;;;0.70;;
72951;SDS011;61102;51.956;5.878;2022-08-07T17:49:49;2.13;;;0.70;;
72951;SDS011;61102;51.956;5.878;2022-08-07T17:52:26;4.13;;;0.75;;
72951;SDS011;61102;51.956;5.878;2022-08-07T17:55:12;1.92;;;0.60;;
72951;SDS011;61102;51.956;5.878;2022-08-07T18:00:09;2.47;;;0.73;;
72951;SDS011;61102;51.956;5.878;2022-08-07T18:02:42;1.75;;;0.60;;
72951;SDS011;61102;51.956;5.878;2022-08-07T18:10:44;3.10;;;0.80;;
72951;SDS011;61102;51.956;5.878;2022-08-07T18:15:57;1.92;;;0.70;;
72951;SDS011;61102;51.956;5.878;2022-08-07T18:18:48;2.45;;;0.60;;
72951;SDS011;61102;51.956;5.878;2022-08-07T18:24:06;2.53;;;0.80;;
72951;SDS011;61102;51.956;5.878;2022-08-07T18:42:56;1.55;;;0.73;;
72951;SDS011;61102;51.956;5.878;2022-08-07T18:45:37;3.10;;;0.80;;
72951;SDS011;61102;51.956;5.878;2022-08-07T18:48:21;3.03;;;0.70;;
72951;SDS011;61102;51.956;5.878;2022-08-07T18:50:54;5.47;;;0.90;;
72951;SDS011;61102;51.956;5.878;2022-08-07T18:53:44;3.42;;;0.70;;
72951;SDS011;61102;51.956;5.878;2022-08-07T18:56:41;1.70;;;0.50;;
72951;SDS011;61102;51.956;5.878;2022-08-07T18:59:20;2.80;;;0.90;;
72951;SDS011;61102;51.956;5.878;2022-08-07T19:04:58;4.72;;;0.95;;
72951;SDS011;61102;51.956;5.878;2022-08-07T19:07:36;3.97;;;0.98;;
72951;SDS011;61102;51.956;5.878;2022-08-07T19:10:12;5.07;;;1.08;;
72951;SDS011;61102;51.956;5.878;2022-08-07T19:12:47;2.63;;;0.70;;
72951;SDS011;61102;51.956;5.878;2022-08-07T19:24:18;3.08;;;0.88;;
72951;SDS011;61102;51.956;5.878;2022-08-07T19:26:49;2.47;;;0.88;;
72951;SDS011;61102;51.956;5.878;2022-08-07T19:29:18;3.80;;;0.90;;
72951;SDS011;61102;51.956;5.878;2022-08-07T19:31:50;2.80;;;0.85;;
72951;SDS011;61102;51.956;5.878;2022-08-07T19:34:22;2.55;;;0.90;;
72951;SDS011;61102;51.956;5.878;2022-08-07T19:36:51;2.80;;;0.90;;
72951;SDS011;61102;51.956;5.878;2022-08-07T19:39:22;3.65;;;1.00;;
72951;SDS011;61102;51.956;5.878;2022-08-07T19:42:08;2.22;;;0.90;;